sensor_id;sensor_type;location;lat;lon;timestamp;P1;durP1;ratioP1;P2;durP2;ratioP2
12429;SDS011;6279;42.192;24.326;2023-07-31T00:01:52;3.92;;;1.90;;
12429;SDS011;6279;42.192;24.326;2023-07-31T00:04:17;2.22;;;1.88;;
12429;SDS011;6279;42.192;24.326;2023-07-31T00:06:43;2.23;;;1.80;;
12429;SDS011;6279;42.192;24.326;2023-07-31T00:09:08;1.90;;;1.70;;
12429;SDS011;6279;42.192;24.326;2023-07-31T00:11:34;4.87;;;1.87;;
12429;SDS011;6279;42.192;24.326;2023-07-31T00:13:59;2.20;;;1.70;;
12429;SDS011;6279;42.192;24.326;2023-07-31T00:16:24;6.73;;;1.80;;
12429;SDS011;6279;42.192;24.326;2023-07-31T00:18:50;4.13;;;1.77;;
12429;SDS011;6279;42.192;24.326;2023-07-31T00:21:15;1.70;;;1.60;;
12429;SDS011;6279;42.192;24.326;2023-07-31T00:23:40;2.20;;;1.67;;
12429;SDS011;6279;42.192;24.326;2023-07-31T00:26:06;2.20;;;1.67;;
12429;SDS011;6279;42.192;24.326;2023-07-31T00:28:31;2.50;;;1.80;;
12429;SDS011;6279;42.192;24.326;2023-07-31T00:30:57;2.27;;;1.80;;
12429;SDS011;6279;42.192;24.326;2023-07-31T00:33:22;5.30;;;2.00;;
12429;SDS011;6279;42.192;24.326;2023-07-31T00:35:48;2.70;;;2.00;;
12429;SDS011;6279;42.192;24.326;2023-07-31T00:38:13;4.23;;;2.00;;
12429;SDS011;6279;42.192;24.326;2023-07-31T00:40:39;2.47;;;2.05;;
12429;SDS011;6279;42.192;24.326;2023-07-31T00:43:04;3.55;;;2.72;;
12429;SDS011;6279;42.192;24.326;2023-07-31T00:45:30;4.22;;;2.45;;
12429;SDS011;6279;42.192;24.326;2023-07-31T00:47:56;5.82;;;2.50;;
12429;SDS011;6279;42.192;24.326;2023-07-31T00:50:22;3.13;;;2.50;;
12429;SDS011;6279;42.192;24.326;2023-07-31T00:52:52;5.20;;;2.40;;
12429;SDS011;6279;42.192;24.326;2023-07-31T00:55:17;3.28;;;2.67;;
12429;SDS011;6279;42.192;24.326;2023-07-31T00:57:43;4.22;;;2.80;;
12429;SDS011;6279;42.192;24.326;2023-07-31T01:00:10;6.85;;;2.80;;
12429;SDS011;6279;42.192;24.326;2023-07-31T01:02:36;3.05;;;2.70;;
12429;SDS011;6279;42.192;24.326;2023-07-31T01:05:03;3.33;;;2.97;;
12429;SDS011;6279;42.192;24.326;2023-07-31T01:10:16;3.37;;;3.00;;
12429;SDS011;6279;42.192;24.326;2023-07-31T01:12:47;3.65;;;2.80;;
12429;SDS011;6279;42.192;24.326;2023-07-31T01:15:13;3.47;;;3.10;;
12429;SDS011;6279;42.192;24.326;2023-07-31T01:17:40;3.30;;;3.00;;
12429;SDS011;6279;42.192;24.326;2023-07-31T01:23:05;6.07;;;3.53;;
12429;SDS011;6279;42.192;24.326;2023-07-31T01:28:32;4.13;;;3.43;;
12429;SDS011;6279;42.192;24.326;2023-07-31T01:31:19;7.00;;;3.30;;
12429;SDS011;6279;42.192;24.326;2023-07-31T01:33:48;4.83;;;3.53;;
12429;SDS011;6279;42.192;24.326;2023-07-31T01:36:14;4.77;;;3.27;;
12429;SDS011;6279;42.192;24.326;2023-07-31T01:38:40;4.63;;;3.37;;
12429;SDS011;6279;42.192;24.326;2023-07-31T01:41:05;5.23;;;2.90;;
12429;SDS011;6279;42.192;24.326;2023-07-31T01:43:30;5.43;;;3.63;;
12429;SDS011;6279;42.192;24.326;2023-07-31T01:45:56;3.53;;;3.23;;
12429;SDS011;6279;42.192;24.326;2023-07-31T01:48:21;4.10;;;3.27;;
12429;SDS011;6279;42.192;24.326;2023-07-31T01:50:47;6.20;;;3.67;;
12429;SDS011;6279;42.192;24.326;2023-07-31T01:53:12;4.60;;;3.73;;
12429;SDS011;6279;42.192;24.326;2023-07-31T01:55:38;4.47;;;3.13;;
12429;SDS011;6279;42.192;24.326;2023-07-31T01:58:03;6.00;;;3.43;;
12429;SDS011;6279;42.192;24.326;2023-07-31T02:00:29;3.93;;;3.17;;
12429;SDS011;6279;42.192;24.326;2023-07-31T02:02:54;4.93;;;3.30;;
12429;SDS011;6279;42.192;24.326;2023-07-31T02:05:19;4.10;;;3.27;;
12429;SDS011;6279;42.192;24.326;2023-07-31T02:07:45;4.07;;;2.90;;
12429;SDS011;6279;42.192;24.326;2023-07-31T02:10:11;6.07;;;3.33;;
12429;SDS011;6279;42.192;24.326;2023-07-31T02:12:36;6.23;;;3.57;;
12429;SDS011;6279;42.192;24.326;2023-07-31T02:15:02;3.50;;;3.20;;
12429;SDS011;6279;42.192;24.326;2023-07-31T02:17:28;3.67;;;3.37;;
12429;SDS011;6279;42.192;24.326;2023-07-31T02:19:54;3.23;;;2.83;;
12429;SDS011;6279;42.192;24.326;2023-07-31T02:22:20;3.13;;;2.80;;
12429;SDS011;6279;42.192;24.326;2023-07-31T02:24:45;4.20;;;3.37;;
12429;SDS011;6279;42.192;24.326;2023-07-31T02:27:10;7.37;;;3.60;;
12429;SDS011;6279;42.192;24.326;2023-07-31T02:29:36;5.03;;;2.93;;
12429;SDS011;6279;42.192;24.326;2023-07-31T02:32:01;5.80;;;3.33;;
12429;SDS011;6279;42.192;24.326;2023-07-31T02:34:30;3.53;;;3.10;;
12429;SDS011;6279;42.192;24.326;2023-07-31T02:36:55;3.93;;;3.33;;
12429;SDS011;6279;42.192;24.326;2023-07-31T02:39:21;3.57;;;3.20;;
12429;SDS011;6279;42.192;24.326;2023-07-31T02:41:46;5.23;;;3.57;;
12429;SDS011;6279;42.192;24.326;2023-07-31T02:44:12;5.13;;;4.20;;
12429;SDS011;6279;42.192;24.326;2023-07-31T02:46:39;3.43;;;3.10;;
12429;SDS011;6279;42.192;24.326;2023-07-31T02:49:05;7.67;;;3.87;;
12429;SDS011;6279;42.192;24.326;2023-07-31T02:51:30;4.50;;;3.43;;
12429;SDS011;6279;42.192;24.326;2023-07-31T02:53:56;4.23;;;3.50;;
12429;SDS011;6279;42.192;24.326;2023-07-31T02:56:21;6.00;;;3.40;;
12429;SDS011;6279;42.192;24.326;2023-07-31T02:58:47;5.73;;;3.53;;
12429;SDS011;6279;42.192;24.326;2023-07-31T03:01:12;6.87;;;3.70;;
12429;SDS011;6279;42.192;24.326;2023-07-31T03:03:37;4.57;;;3.47;;
12429;SDS011;6279;42.192;24.326;2023-07-31T03:06:03;3.33;;;3.03;;
12429;SDS011;6279;42.192;24.326;2023-07-31T03:08:28;3.67;;;3.37;;
12429;SDS011;6279;42.192;24.326;2023-07-31T03:10:54;3.90;;;3.17;;
12429;SDS011;6279;42.192;24.326;2023-07-31T03:13:19;3.53;;;2.93;;
12429;SDS011;6279;42.192;24.326;2023-07-31T03:15:44;4.43;;;3.47;;
12429;SDS011;6279;42.192;24.326;2023-07-31T03:18:10;5.83;;;3.20;;
12429;SDS011;6279;42.192;24.326;2023-07-31T03:20:35;4.67;;;3.50;;
12429;SDS011;6279;42.192;24.326;2023-07-31T03:23:01;5.53;;;3.47;;
12429;SDS011;6279;42.192;24.326;2023-07-31T03:25:26;4.17;;;3.20;;
12429;SDS011;6279;42.192;24.326;2023-07-31T03:27:51;6.00;;;3.67;;
12429;SDS011;6279;42.192;24.326;2023-07-31T03:30:17;5.40;;;3.37;;
12429;SDS011;6279;42.192;24.326;2023-07-31T03:32:42;5.33;;;3.27;;
12429;SDS011;6279;42.192;24.326;2023-07-31T03:35:08;4.73;;;3.50;;
12429;SDS011;6279;42.192;24.326;2023-07-31T03:37:33;4.57;;;3.07;;
12429;SDS011;6279;42.192;24.326;2023-07-31T03:39:58;6.40;;;5.43;;
12429;SDS011;6279;42.192;24.326;2023-07-31T03:42:24;4.93;;;3.57;;
12429;SDS011;6279;42.192;24.326;2023-07-31T03:44:49;7.10;;;3.93;;
12429;SDS011;6279;42.192;24.326;2023-07-31T03:47:15;6.07;;;3.80;;
12429;SDS011;6279;42.192;24.326;2023-07-31T03:49:40;6.93;;;4.37;;
12429;SDS011;6279;42.192;24.326;2023-07-31T03:52:06;3.97;;;3.53;;
12429;SDS011;6279;42.192;24.326;2023-07-31T03:54:31;5.73;;;3.70;;
12429;SDS011;6279;42.192;24.326;2023-07-31T03:56:57;6.23;;;3.60;;
12429;SDS011;6279;42.192;24.326;2023-07-31T03:59:22;8.87;;;3.73;;
12429;SDS011;6279;42.192;24.326;2023-07-31T04:01:47;4.60;;;3.63;;
12429;SDS011;6279;42.192;24.326;2023-07-31T04:04:13;6.80;;;4.10;;
12429;SDS011;6279;42.192;24.326;2023-07-31T04:06:38;6.57;;;3.80;;
12429;SDS011;6279;42.192;24.326;2023-07-31T04:09:04;5.07;;;3.53;;
12429;SDS011;6279;42.192;24.326;2023-07-31T04:11:29;5.97;;;3.60;;
12429;SDS011;6279;42.192;24.326;2023-07-31T04:13:54;5.77;;;4.27;;
12429;SDS011;6279;42.192;24.326;2023-07-31T04:16:20;6.53;;;4.07;;
12429;SDS011;6279;42.192;24.326;2023-07-31T04:18:45;5.60;;;4.07;;
12429;SDS011;6279;42.192;24.326;2023-07-31T04:21:11;7.67;;;4.40;;
12429;SDS011;6279;42.192;24.326;2023-07-31T04:23:36;5.17;;;4.27;;
12429;SDS011;6279;42.192;24.326;2023-07-31T04:26:02;6.13;;;4.17;;
12429;SDS011;6279;42.192;24.326;2023-07-31T04:28:27;6.13;;;3.90;;
12429;SDS011;6279;42.192;24.326;2023-07-31T04:30:55;5.50;;;3.90;;
12429;SDS011;6279;42.192;24.326;2023-07-31T04:33:21;7.40;;;4.27;;
12429;SDS011;6279;42.192;24.326;2023-07-31T04:35:50;5.53;;;4.33;;
12429;SDS011;6279;42.192;24.326;2023-07-31T04:38:17;8.60;;;4.60;;
12429;SDS011;6279;42.192;24.326;2023-07-31T04:40:43;8.17;;;4.47;;
12429;SDS011;6279;42.192;24.326;2023-07-31T04:43:09;5.80;;;4.37;;
12429;SDS011;6279;42.192;24.326;2023-07-31T04:45:34;5.87;;;5.07;;
12429;SDS011;6279;42.192;24.326;2023-07-31T04:47:59;6.00;;;4.73;;
12429;SDS011;6279;42.192;24.326;2023-07-31T04:50:25;5.37;;;4.67;;
12429;SDS011;6279;42.192;24.326;2023-07-31T04:52:50;7.17;;;4.97;;
12429;SDS011;6279;42.192;24.326;2023-07-31T04:55:16;7.30;;;5.10;;
12429;SDS011;6279;42.192;24.326;2023-07-31T04:57:41;13.20;;;5.60;;
12429;SDS011;6279;42.192;24.326;2023-07-31T05:00:06;7.73;;;5.30;;
12429;SDS011;6279;42.192;24.326;2023-07-31T05:02:32;7.43;;;5.10;;
12429;SDS011;6279;42.192;24.326;2023-07-31T05:04:58;6.43;;;5.30;;
12429;SDS011;6279;42.192;24.326;2023-07-31T05:07:23;6.47;;;5.13;;
12429;SDS011;6279;42.192;24.326;2023-07-31T05:09:48;5.60;;;4.80;;
12429;SDS011;6279;42.192;24.326;2023-07-31T05:12:14;5.82;;;4.18;;
12429;SDS011;6279;42.192;24.326;2023-07-31T05:14:39;6.20;;;4.78;;
12429;SDS011;6279;42.192;24.326;2023-07-31T05:17:04;5.63;;;4.55;;
12429;SDS011;6279;42.192;24.326;2023-07-31T05:19:30;5.25;;;4.75;;
12429;SDS011;6279;42.192;24.326;2023-07-31T05:21:56;5.88;;;4.80;;
12429;SDS011;6279;42.192;24.326;2023-07-31T05:24:21;4.97;;;4.45;;
12429;SDS011;6279;42.192;24.326;2023-07-31T05:26:46;6.32;;;4.80;;
12429;SDS011;6279;42.192;24.326;2023-07-31T05:29:12;7.88;;;5.25;;
12429;SDS011;6279;42.192;24.326;2023-07-31T05:31:37;6.22;;;5.65;;
12429;SDS011;6279;42.192;24.326;2023-07-31T05:34:03;8.10;;;5.55;;
12429;SDS011;6279;42.192;24.326;2023-07-31T05:36:29;8.20;;;5.88;;
12429;SDS011;6279;42.192;24.326;2023-07-31T05:38:54;9.98;;;6.88;;
12429;SDS011;6279;42.192;24.326;2023-07-31T05:41:20;11.75;;;6.85;;
12429;SDS011;6279;42.192;24.326;2023-07-31T05:43:45;9.23;;;7.07;;
12429;SDS011;6279;42.192;24.326;2023-07-31T05:46:10;7.90;;;6.32;;
12429;SDS011;6279;42.192;24.326;2023-07-31T05:48:37;9.18;;;6.45;;
12429;SDS011;6279;42.192;24.326;2023-07-31T05:51:02;8.63;;;6.70;;
12429;SDS011;6279;42.192;24.326;2023-07-31T05:53:28;12.65;;;7.80;;
12429;SDS011;6279;42.192;24.326;2023-07-31T05:55:53;10.02;;;7.55;;
12429;SDS011;6279;42.192;24.326;2023-07-31T05:58:19;11.07;;;7.38;;
12429;SDS011;6279;42.192;24.326;2023-07-31T06:00:44;10.40;;;7.95;;
12429;SDS011;6279;42.192;24.326;2023-07-31T06:03:09;10.85;;;7.68;;
12429;SDS011;6279;42.192;24.326;2023-07-31T06:05:35;8.73;;;7.93;;
12429;SDS011;6279;42.192;24.326;2023-07-31T06:08:00;8.13;;;7.43;;
12429;SDS011;6279;42.192;24.326;2023-07-31T06:10:26;8.65;;;7.75;;
12429;SDS011;6279;42.192;24.326;2023-07-31T06:12:51;9.00;;;8.20;;
12429;SDS011;6279;42.192;24.326;2023-07-31T06:15:17;10.38;;;8.40;;
12429;SDS011;6279;42.192;24.326;2023-07-31T06:17:44;9.07;;;8.27;;
12429;SDS011;6279;42.192;24.326;2023-07-31T06:20:09;9.70;;;8.50;;
12429;SDS011;6279;42.192;24.326;2023-07-31T06:22:35;9.02;;;8.27;;
12429;SDS011;6279;42.192;24.326;2023-07-31T06:25:00;9.63;;;8.68;;
12429;SDS011;6279;42.192;24.326;2023-07-31T06:27:26;10.52;;;9.43;;
12429;SDS011;6279;42.192;24.326;2023-07-31T06:29:51;11.55;;;10.38;;
12429;SDS011;6279;42.192;24.326;2023-07-31T06:32:16;14.50;;;12.98;;
12429;SDS011;6279;42.192;24.326;2023-07-31T06:34:42;13.70;;;12.40;;
12429;SDS011;6279;42.192;24.326;2023-07-31T06:37:07;14.57;;;13.15;;
12429;SDS011;6279;42.192;24.326;2023-07-31T06:39:33;14.00;;;12.80;;
12429;SDS011;6279;42.192;24.326;2023-07-31T06:41:58;14.20;;;12.90;;
12429;SDS011;6279;42.192;24.326;2023-07-31T06:44:24;14.52;;;13.20;;
12429;SDS011;6279;42.192;24.326;2023-07-31T06:46:49;14.05;;;12.73;;
12429;SDS011;6279;42.192;24.326;2023-07-31T06:49:14;14.77;;;13.38;;
12429;SDS011;6279;42.192;24.326;2023-07-31T06:51:40;14.30;;;12.90;;
12429;SDS011;6279;42.192;24.326;2023-07-31T06:54:06;14.43;;;12.82;;
12429;SDS011;6279;42.192;24.326;2023-07-31T06:56:32;18.83;;;13.93;;
12429;SDS011;6279;42.192;24.326;2023-07-31T06:58:58;14.95;;;13.57;;
12429;SDS011;6279;42.192;24.326;2023-07-31T07:01:23;16.33;;;14.88;;
12429;SDS011;6279;42.192;24.326;2023-07-31T07:03:49;15.88;;;14.25;;
12429;SDS011;6279;42.192;24.326;2023-07-31T07:06:16;16.08;;;14.57;;
12429;SDS011;6279;42.192;24.326;2023-07-31T07:08:42;15.98;;;14.38;;
12429;SDS011;6279;42.192;24.326;2023-07-31T07:11:08;15.95;;;14.48;;
12429;SDS011;6279;42.192;24.326;2023-07-31T07:13:33;16.27;;;14.68;;
12429;SDS011;6279;42.192;24.326;2023-07-31T07:15:59;15.30;;;13.77;;
12429;SDS011;6279;42.192;24.326;2023-07-31T07:18:24;15.93;;;14.00;;
12429;SDS011;6279;42.192;24.326;2023-07-31T07:20:50;16.70;;;15.05;;
12429;SDS011;6279;42.192;24.326;2023-07-31T07:23:17;15.13;;;13.48;;
12429;SDS011;6279;42.192;24.326;2023-07-31T07:25:42;14.85;;;12.38;;
12429;SDS011;6279;42.192;24.326;2023-07-31T07:28:08;14.07;;;12.88;;
12429;SDS011;6279;42.192;24.326;2023-07-31T07:30:34;14.73;;;13.32;;
12429;SDS011;6279;42.192;24.326;2023-07-31T07:32:59;12.00;;;10.80;;
12429;SDS011;6279;42.192;24.326;2023-07-31T07:35:25;12.70;;;11.27;;
12429;SDS011;6279;42.192;24.326;2023-07-31T07:37:50;12.73;;;11.52;;
12429;SDS011;6279;42.192;24.326;2023-07-31T07:40:16;10.52;;;9.45;;
12429;SDS011;6279;42.192;24.326;2023-07-31T07:42:41;12.00;;;10.90;;
12429;SDS011;6279;42.192;24.326;2023-07-31T07:45:07;11.15;;;10.15;;
12429;SDS011;6279;42.192;24.326;2023-07-31T07:47:33;11.15;;;10.05;;
12429;SDS011;6279;42.192;24.326;2023-07-31T07:49:58;10.57;;;9.70;;
12429;SDS011;6279;42.192;24.326;2023-07-31T07:52:23;11.13;;;10.02;;
12429;SDS011;6279;42.192;24.326;2023-07-31T07:54:49;11.27;;;10.32;;
12429;SDS011;6279;42.192;24.326;2023-07-31T07:57:15;10.65;;;9.60;;
12429;SDS011;6279;42.192;24.326;2023-07-31T07:59:40;10.68;;;9.68;;
12429;SDS011;6279;42.192;24.326;2023-07-31T08:02:06;12.25;;;9.63;;
12429;SDS011;6279;42.192;24.326;2023-07-31T08:04:31;10.38;;;9.38;;
12429;SDS011;6279;42.192;24.326;2023-07-31T08:06:57;9.68;;;8.88;;
12429;SDS011;6279;42.192;24.326;2023-07-31T08:09:22;9.82;;;8.75;;
12429;SDS011;6279;42.192;24.326;2023-07-31T08:11:48;8.90;;;8.10;;
12429;SDS011;6279;42.192;24.326;2023-07-31T08:14:13;8.93;;;8.15;;
12429;SDS011;6279;42.192;24.326;2023-07-31T08:16:38;7.97;;;7.22;;
12429;SDS011;6279;42.192;24.326;2023-07-31T08:19:04;8.18;;;7.47;;
12429;SDS011;6279;42.192;24.326;2023-07-31T08:21:29;10.60;;;7.88;;
12429;SDS011;6279;42.192;24.326;2023-07-31T08:23:56;7.60;;;7.00;;
12429;SDS011;6279;42.192;24.326;2023-07-31T08:26:21;7.63;;;7.03;;
12429;SDS011;6279;42.192;24.326;2023-07-31T08:28:47;8.50;;;7.57;;
12429;SDS011;6279;42.192;24.326;2023-07-31T08:31:12;7.25;;;6.55;;
12429;SDS011;6279;42.192;24.326;2023-07-31T08:33:38;6.80;;;6.20;;
12429;SDS011;6279;42.192;24.326;2023-07-31T08:36:04;8.63;;;6.90;;
12429;SDS011;6279;42.192;24.326;2023-07-31T08:38:30;5.82;;;5.20;;
12429;SDS011;6279;42.192;24.326;2023-07-31T08:40:58;5.57;;;5.07;;
12429;SDS011;6279;42.192;24.326;2023-07-31T08:43:27;6.00;;;5.50;;
12429;SDS011;6279;42.192;24.326;2023-07-31T08:45:53;5.53;;;5.03;;
12429;SDS011;6279;42.192;24.326;2023-07-31T08:48:19;5.60;;;5.20;;
12429;SDS011;6279;42.192;24.326;2023-07-31T08:50:46;6.53;;;5.53;;
12429;SDS011;6279;42.192;24.326;2023-07-31T08:53:11;6.22;;;5.70;;
12429;SDS011;6279;42.192;24.326;2023-07-31T08:55:37;5.78;;;5.38;;
12429;SDS011;6279;42.192;24.326;2023-07-31T08:58:06;5.80;;;5.20;;
12429;SDS011;6279;42.192;24.326;2023-07-31T09:00:34;5.57;;;5.00;;
12429;SDS011;6279;42.192;24.326;2023-07-31T09:03:34;7.13;;;4.55;;
12429;SDS011;6279;42.192;24.326;2023-07-31T09:05:53;4.15;;;3.75;;
12429;SDS011;6279;42.192;24.326;2023-07-31T09:08:21;6.00;;;4.40;;
12429;SDS011;6279;42.192;24.326;2023-07-31T09:10:47;4.10;;;3.80;;
12429;SDS011;6279;42.192;24.326;2023-07-31T09:13:14;4.15;;;3.75;;
12429;SDS011;6279;42.192;24.326;2023-07-31T09:15:41;6.30;;;4.25;;
12429;SDS011;6279;42.192;24.326;2023-07-31T09:18:08;4.53;;;4.13;;
12429;SDS011;6279;42.192;24.326;2023-07-31T09:20:34;4.63;;;4.22;;
12429;SDS011;6279;42.192;24.326;2023-07-31T09:23:10;5.85;;;4.30;;
12429;SDS011;6279;42.192;24.326;2023-07-31T09:25:37;4.78;;;3.70;;
12429;SDS011;6279;42.192;24.326;2023-07-31T09:28:05;4.10;;;3.70;;
12429;SDS011;6279;42.192;24.326;2023-07-31T09:30:43;4.85;;;3.80;;
12429;SDS011;6279;42.192;24.326;2023-07-31T09:33:11;4.18;;;3.80;;
12429;SDS011;6279;42.192;24.326;2023-07-31T09:35:37;4.00;;;3.70;;
12429;SDS011;6279;42.192;24.326;2023-07-31T09:38:03;4.03;;;3.63;;
12429;SDS011;6279;42.192;24.326;2023-07-31T09:40:31;5.00;;;3.25;;
12429;SDS011;6279;42.192;24.326;2023-07-31T09:43:02;3.95;;;3.60;;
12429;SDS011;6279;42.192;24.326;2023-07-31T09:45:35;3.92;;;3.22;;
12429;SDS011;6279;42.192;24.326;2023-07-31T09:48:02;3.60;;;3.30;;
12429;SDS011;6279;42.192;24.326;2023-07-31T09:50:28;3.67;;;3.38;;
12429;SDS011;6279;42.192;24.326;2023-07-31T09:52:54;4.63;;;3.75;;
12429;SDS011;6279;42.192;24.326;2023-07-31T09:55:20;4.07;;;3.50;;
12429;SDS011;6279;42.192;24.326;2023-07-31T09:57:46;4.15;;;3.70;;
12429;SDS011;6279;42.192;24.326;2023-07-31T10:00:13;4.05;;;3.65;;
12429;SDS011;6279;42.192;24.326;2023-07-31T10:02:40;3.60;;;3.30;;
12429;SDS011;6279;42.192;24.326;2023-07-31T10:05:07;4.60;;;3.90;;
12429;SDS011;6279;42.192;24.326;2023-07-31T10:07:37;3.90;;;3.47;;
12429;SDS011;6279;42.192;24.326;2023-07-31T10:10:04;4.72;;;4.15;;
12429;SDS011;6279;42.192;24.326;2023-07-31T10:12:33;3.92;;;3.58;;
12429;SDS011;6279;42.192;24.326;2023-07-31T10:15:00;3.53;;;3.22;;
12429;SDS011;6279;42.192;24.326;2023-07-31T10:17:26;4.82;;;3.30;;
12429;SDS011;6279;42.192;24.326;2023-07-31T10:19:52;3.55;;;3.25;;
12429;SDS011;6279;42.192;24.326;2023-07-31T10:22:21;3.40;;;3.10;;
12429;SDS011;6279;42.192;24.326;2023-07-31T10:24:47;3.45;;;3.15;;
12429;SDS011;6279;42.192;24.326;2023-07-31T10:27:13;4.97;;;3.08;;
12429;SDS011;6279;42.192;24.326;2023-07-31T10:29:39;3.00;;;2.80;;
12429;SDS011;6279;42.192;24.326;2023-07-31T10:32:06;4.05;;;2.78;;
12429;SDS011;6279;42.192;24.326;2023-07-31T10:34:35;2.70;;;2.50;;
12429;SDS011;6279;42.192;24.326;2023-07-31T10:39:54;4.78;;;2.65;;
12429;SDS011;6279;42.192;24.326;2023-07-31T10:42:37;7.85;;;4.03;;
12429;SDS011;6279;42.192;24.326;2023-07-31T10:45:09;2.70;;;2.50;;
12429;SDS011;6279;42.192;24.326;2023-07-31T10:47:44;2.45;;;2.22;;
12429;SDS011;6279;42.192;24.326;2023-07-31T10:50:20;2.60;;;2.40;;
12429;SDS011;6279;42.192;24.326;2023-07-31T10:52:49;3.33;;;2.53;;
12429;SDS011;6279;42.192;24.326;2023-07-31T10:58:04;3.15;;;2.85;;
12429;SDS011;6279;42.192;24.326;2023-07-31T11:00:31;3.20;;;2.67;;
12429;SDS011;6279;42.192;24.326;2023-07-31T11:05:43;3.45;;;2.63;;
12429;SDS011;6279;42.192;24.326;2023-07-31T11:08:22;2.88;;;2.50;;
12429;SDS011;6279;42.192;24.326;2023-07-31T11:10:49;3.38;;;3.08;;
12429;SDS011;6279;42.192;24.326;2023-07-31T11:13:45;4.43;;;2.80;;
12429;SDS011;6279;42.192;24.326;2023-07-31T11:16:15;2.88;;;2.60;;
12429;SDS011;6279;42.192;24.326;2023-07-31T11:18:45;3.00;;;2.38;;
12429;SDS011;6279;42.192;24.326;2023-07-31T11:21:16;2.88;;;2.63;;
12429;SDS011;6279;42.192;24.326;2023-07-31T11:23:46;3.00;;;2.60;;
12429;SDS011;6279;42.192;24.326;2023-07-31T11:26:12;4.50;;;2.58;;
12429;SDS011;6279;42.192;24.326;2023-07-31T11:28:38;3.08;;;2.28;;
12429;SDS011;6279;42.192;24.326;2023-07-31T11:31:04;2.70;;;2.50;;
12429;SDS011;6279;42.192;24.326;2023-07-31T11:33:30;2.50;;;2.30;;
12429;SDS011;6279;42.192;24.326;2023-07-31T11:35:56;4.03;;;2.40;;
12429;SDS011;6279;42.192;24.326;2023-07-31T11:38:22;3.08;;;2.80;;
12429;SDS011;6279;42.192;24.326;2023-07-31T11:40:49;4.00;;;2.58;;
12429;SDS011;6279;42.192;24.326;2023-07-31T11:43:15;5.35;;;3.20;;
12429;SDS011;6279;42.192;24.326;2023-07-31T11:45:44;8.02;;;3.90;;
12429;SDS011;6279;42.192;24.326;2023-07-31T11:48:23;2.88;;;2.67;;
12429;SDS011;6279;42.192;24.326;2023-07-31T11:50:51;3.85;;;2.50;;
12429;SDS011;6279;42.192;24.326;2023-07-31T11:53:22;3.15;;;2.88;;
12429;SDS011;6279;42.192;24.326;2023-07-31T11:55:53;2.90;;;2.70;;
12429;SDS011;6279;42.192;24.326;2023-07-31T11:58:20;4.13;;;2.45;;
12429;SDS011;6279;42.192;24.326;2023-07-31T12:00:46;3.30;;;2.35;;
12429;SDS011;6279;42.192;24.326;2023-07-31T12:03:12;2.75;;;2.45;;
12429;SDS011;6279;42.192;24.326;2023-07-31T12:05:38;2.55;;;2.05;;
12429;SDS011;6279;42.192;24.326;2023-07-31T12:08:08;4.60;;;2.67;;
12429;SDS011;6279;42.192;24.326;2023-07-31T12:10:35;3.33;;;2.42;;
12429;SDS011;6279;42.192;24.326;2023-07-31T12:13:02;2.22;;;2.08;;
12429;SDS011;6279;42.192;24.326;2023-07-31T12:15:33;2.50;;;2.30;;
12429;SDS011;6279;42.192;24.326;2023-07-31T12:18:07;2.58;;;2.35;;
12429;SDS011;6279;42.192;24.326;2023-07-31T12:20:40;2.65;;;2.40;;
12429;SDS011;6279;42.192;24.326;2023-07-31T12:23:13;4.18;;;2.17;;
12429;SDS011;6279;42.192;24.326;2023-07-31T12:25:40;2.60;;;2.28;;
12429;SDS011;6279;42.192;24.326;2023-07-31T12:28:06;2.78;;;2.10;;
12429;SDS011;6279;42.192;24.326;2023-07-31T12:30:36;2.67;;;2.38;;
12429;SDS011;6279;42.192;24.326;2023-07-31T12:33:20;2.08;;;1.90;;
12429;SDS011;6279;42.192;24.326;2023-07-31T12:35:48;2.35;;;2.15;;
12429;SDS011;6279;42.192;24.326;2023-07-31T12:38:14;2.72;;;1.90;;
12429;SDS011;6279;42.192;24.326;2023-07-31T12:40:40;2.63;;;2.30;;
12429;SDS011;6279;42.192;24.326;2023-07-31T12:43:09;2.85;;;2.38;;
12429;SDS011;6279;42.192;24.326;2023-07-31T12:45:34;4.55;;;2.30;;
12429;SDS011;6279;42.192;24.326;2023-07-31T12:48:00;2.10;;;1.90;;
12429;SDS011;6279;42.192;24.326;2023-07-31T12:50:25;2.92;;;2.20;;
12429;SDS011;6279;42.192;24.326;2023-07-31T12:52:54;2.45;;;2.10;;
12429;SDS011;6279;42.192;24.326;2023-07-31T12:55:22;2.22;;;2.03;;
12429;SDS011;6279;42.192;24.326;2023-07-31T12:57:48;2.42;;;1.70;;
12429;SDS011;6279;42.192;24.326;2023-07-31T13:00:14;2.22;;;1.70;;
12429;SDS011;6279;42.192;24.326;2023-07-31T13:02:39;2.17;;;1.98;;
12429;SDS011;6279;42.192;24.326;2023-07-31T13:05:05;2.35;;;1.70;;
12429;SDS011;6279;42.192;24.326;2023-07-31T13:07:31;4.28;;;1.92;;
12429;SDS011;6279;42.192;24.326;2023-07-31T13:09:56;1.95;;;1.60;;
12429;SDS011;6279;42.192;24.326;2023-07-31T13:12:21;1.92;;;1.83;;
12429;SDS011;6279;42.192;24.326;2023-07-31T13:14:47;2.20;;;1.90;;
12429;SDS011;6279;42.192;24.326;2023-07-31T13:17:12;3.10;;;1.65;;
12429;SDS011;6279;42.192;24.326;2023-07-31T13:19:38;4.53;;;2.20;;
12429;SDS011;6279;42.192;24.326;2023-07-31T13:22:03;1.95;;;1.70;;
12429;SDS011;6279;42.192;24.326;2023-07-31T13:24:29;1.60;;;1.50;;
12429;SDS011;6279;42.192;24.326;2023-07-31T13:26:55;3.42;;;1.60;;
12429;SDS011;6279;42.192;24.326;2023-07-31T13:29:20;1.60;;;1.50;;
12429;SDS011;6279;42.192;24.326;2023-07-31T13:31:47;1.58;;;1.48;;
12429;SDS011;6279;42.192;24.326;2023-07-31T13:34:12;1.50;;;1.40;;
12429;SDS011;6279;42.192;24.326;2023-07-31T13:36:38;1.67;;;1.40;;
12429;SDS011;6279;42.192;24.326;2023-07-31T13:39:03;2.00;;;1.42;;
12429;SDS011;6279;42.192;24.326;2023-07-31T13:41:28;2.10;;;1.60;;
12429;SDS011;6279;42.192;24.326;2023-07-31T13:43:54;3.95;;;1.65;;
12429;SDS011;6279;42.192;24.326;2023-07-31T13:46:19;1.90;;;1.40;;
12429;SDS011;6279;42.192;24.326;2023-07-31T13:48:44;1.70;;;1.60;;
12429;SDS011;6279;42.192;24.326;2023-07-31T13:51:10;2.15;;;1.50;;
12429;SDS011;6279;42.192;24.326;2023-07-31T13:53:35;6.05;;;3.42;;
12429;SDS011;6279;42.192;24.326;2023-07-31T13:56:01;5.13;;;2.40;;
12429;SDS011;6279;42.192;24.326;2023-07-31T13:58:26;3.40;;;2.35;;
12429;SDS011;6279;42.192;24.326;2023-07-31T14:00:52;1.58;;;1.38;;
12429;SDS011;6279;42.192;24.326;2023-07-31T14:03:17;1.42;;;1.33;;
12429;SDS011;6279;42.192;24.326;2023-07-31T14:05:42;3.95;;;2.40;;
12429;SDS011;6279;42.192;24.326;2023-07-31T14:08:08;2.05;;;1.30;;
12429;SDS011;6279;42.192;24.326;2023-07-31T14:10:33;1.60;;;1.50;;
12429;SDS011;6279;42.192;24.326;2023-07-31T14:12:59;2.10;;;1.65;;
12429;SDS011;6279;42.192;24.326;2023-07-31T14:15:24;4.50;;;1.70;;
12429;SDS011;6279;42.192;24.326;2023-07-31T14:17:49;2.92;;;1.63;;
12429;SDS011;6279;42.192;24.326;2023-07-31T14:20:15;167.13;;;25.67;;
12429;SDS011;6279;42.192;24.326;2023-07-31T14:22:40;8.75;;;2.95;;
12429;SDS011;6279;42.192;24.326;2023-07-31T14:25:05;2.08;;;1.55;;
12429;SDS011;6279;42.192;24.326;2023-07-31T14:27:31;2.55;;;1.55;;
12429;SDS011;6279;42.192;24.326;2023-07-31T14:29:56;1.42;;;1.33;;
12429;SDS011;6279;42.192;24.326;2023-07-31T14:32:22;4.05;;;1.45;;
12429;SDS011;6279;42.192;24.326;2023-07-31T14:34:50;6.00;;;1.85;;
12429;SDS011;6279;42.192;24.326;2023-07-31T14:37:15;3.50;;;1.75;;
12429;SDS011;6279;42.192;24.326;2023-07-31T14:39:41;2.70;;;1.92;;
12429;SDS011;6279;42.192;24.326;2023-07-31T14:42:06;2.00;;;1.80;;
12429;SDS011;6279;42.192;24.326;2023-07-31T14:44:32;2.65;;;1.83;;
12429;SDS011;6279;42.192;24.326;2023-07-31T14:46:57;4.70;;;1.80;;
12429;SDS011;6279;42.192;24.326;2023-07-31T14:49:22;8.15;;;2.10;;
12429;SDS011;6279;42.192;24.326;2023-07-31T14:51:48;4.65;;;1.83;;
12429;SDS011;6279;42.192;24.326;2023-07-31T14:54:14;1.70;;;1.50;;
12429;SDS011;6279;42.192;24.326;2023-07-31T14:56:39;4.15;;;1.63;;
12429;SDS011;6279;42.192;24.326;2023-07-31T14:59:04;6.10;;;2.05;;